createdAt,value
2023-03-03T00:01:43.632Z,16.73
2023-03-03T00:04:09.909Z,16.43
2023-03-03T00:06:36.173Z,17.00
2023-03-03T00:09:02.495Z,16.23
2023-03-03T00:11:28.709Z,16.43
2023-03-03T00:13:55.860Z,16.07
2023-03-03T00:16:24.382Z,16.97
2023-03-03T00:18:51.127Z,15.47
2023-03-03T00:21:26.070Z,15.47
2023-03-03T00:23:52.810Z,14.17
2023-03-03T00:26:23.735Z,14.03
2023-03-03T00:28:50.850Z,14.37
2023-03-03T00:31:18.816Z,13.07
2023-03-03T00:33:48.200Z,12.83
2023-03-03T00:36:14.439Z,13.47
2023-03-03T00:38:40.802Z,13.50
2023-03-03T00:41:16.238Z,12.73
2023-03-03T00:43:42.766Z,13.47
2023-03-03T00:46:10.092Z,14.23
2023-03-03T00:48:36.311Z,13.87
2023-03-03T00:51:10.318Z,14.23
2023-03-03T00:53:36.567Z,14.23
2023-03-03T00:56:02.795Z,14.20
2023-03-03T00:58:29.625Z,13.90
2023-03-03T01:00:58.839Z,15.03
2023-03-03T01:03:25.808Z,12.80
2023-03-03T01:05:52.564Z,13.50
2023-03-03T01:08:19.556Z,12.50
2023-03-03T01:10:48.567Z,12.57
2023-03-03T01:13:14.795Z,13.07
2023-03-03T01:15:42.330Z,12.70
2023-03-03T01:18:09.487Z,13.63
2023-03-03T01:20:35.763Z,13.30
2023-03-03T01:23:02.189Z,13.83
2023-03-03T01:25:28.492Z,14.37
2023-03-03T01:27:54.751Z,13.80
2023-03-03T01:30:21.042Z,13.97
2023-03-03T01:32:47.406Z,14.53
2023-03-03T01:35:13.630Z,14.43
2023-03-03T01:37:39.950Z,15.80
2023-03-03T01:40:07.272Z,14.53
2023-03-03T01:42:33.531Z,15.40
2023-03-03T01:45:18.868Z,14.27
2023-03-03T01:47:46.790Z,14.07
2023-03-03T01:50:15.326Z,14.83
2023-03-03T01:52:43.905Z,13.87
2023-03-03T01:55:21.585Z,15.60
2023-03-03T01:57:50.781Z,15.73
2023-03-03T02:00:17.551Z,16.33
2023-03-03T02:02:43.917Z,16.80
2023-03-03T02:05:10.741Z,16.20
2023-03-03T02:07:37.385Z,17.00
2023-03-03T02:10:11.572Z,15.77
2023-03-03T02:12:40.598Z,16.17
2023-03-03T02:15:17.088Z,18.13
2023-03-03T02:17:43.620Z,16.13
2023-03-03T02:20:10.341Z,16.37
2023-03-03T02:22:44.227Z,16.73
2023-03-03T02:25:13.449Z,16.67
2023-03-03T02:27:39.694Z,15.97
2023-03-03T02:30:11.093Z,15.83
2023-03-03T02:32:37.458Z,17.50
2023-03-03T02:35:23.717Z,17.83
2023-03-03T02:37:50.456Z,16.60
2023-03-03T02:40:19.253Z,17.77
2023-03-03T02:42:45.538Z,17.37
2023-03-03T02:45:11.812Z,17.10
2023-03-03T02:47:38.053Z,17.40
2023-03-03T02:50:04.466Z,17.13
2023-03-03T02:52:30.698Z,18.80
2023-03-03T02:54:56.929Z,17.17
2023-03-03T02:57:23.212Z,17.93
2023-03-03T02:59:49.442Z,18.33
2023-03-03T03:02:15.789Z,16.67
2023-03-03T03:04:42.166Z,17.43
2023-03-03T03:07:08.453Z,18.73
2023-03-03T03:09:34.745Z,17.60
2023-03-03T03:12:02.486Z,17.93
2023-03-03T03:14:28.749Z,18.83
2023-03-03T03:16:55.026Z,18.40
2023-03-03T03:19:21.502Z,18.23
2023-03-03T03:21:47.733Z,18.20
2023-03-03T03:24:13.995Z,17.50
2023-03-03T03:26:40.247Z,19.07
2023-03-03T03:29:07.675Z,19.47
2023-03-03T03:31:33.961Z,19.53
2023-03-03T03:34:00.597Z,19.40
2023-03-03T03:36:28.260Z,18.00
2023-03-03T03:38:54.645Z,19.17
2023-03-03T03:41:20.941Z,19.17
2023-03-03T03:43:47.205Z,18.63
2023-03-03T03:46:13.486Z,18.17
2023-03-03T03:48:40.771Z,16.87
2023-03-03T03:51:07.008Z,16.67
2023-03-03T03:53:33.254Z,16.17
2023-03-03T03:55:59.568Z,17.07
2023-03-03T03:58:25.957Z,18.00
2023-03-03T04:00:52.193Z,17.57
2023-03-03T04:03:18.553Z,18.37
2023-03-03T04:05:44.852Z,17.83
2023-03-03T04:08:11.533Z,17.80
2023-03-03T04:10:37.945Z,18.63
2023-03-03T04:13:04.581Z,17.00
2023-03-03T04:15:30.926Z,17.77
2023-03-03T04:17:57.247Z,17.40
2023-03-03T04:20:23.634Z,17.63
2023-03-03T04:22:50.129Z,18.10
2023-03-03T04:25:17.097Z,17.13
2023-03-03T04:27:43.460Z,16.07
2023-03-03T04:30:10.378Z,16.13
2023-03-03T04:32:36.642Z,14.17
2023-03-03T04:35:08.203Z,14.17
2023-03-03T04:37:35.183Z,15.67
2023-03-03T04:40:01.466Z,14.23
2023-03-03T04:42:28.281Z,15.23
2023-03-03T04:44:54.607Z,14.50
2023-03-03T04:47:20.836Z,16.07
2023-03-03T04:49:47.135Z,15.07
2023-03-03T04:52:13.369Z,14.17
2023-03-03T04:54:39.645Z,14.43
2023-03-03T04:57:05.966Z,16.00
2023-03-03T04:59:32.303Z,15.47
2023-03-03T05:01:58.525Z,13.43
2023-03-03T05:04:24.890Z,14.70
2023-03-03T05:06:51.638Z,13.70
2023-03-03T05:09:17.952Z,14.13
2023-03-03T05:11:44.241Z,13.00
2023-03-03T05:14:10.463Z,13.93
2023-03-03T05:16:36.691Z,13.10
2023-03-03T05:19:02.947Z,14.73
2023-03-03T05:21:29.180Z,13.87
2023-03-03T05:23:55.417Z,15.00
2023-03-03T05:26:22.235Z,15.23
2023-03-03T05:28:48.495Z,15.03
2023-03-03T05:31:14.778Z,14.87
2023-03-03T05:33:41.021Z,13.97
2023-03-03T05:36:07.547Z,14.07
2023-03-03T05:38:33.941Z,13.17
2023-03-03T05:41:00.166Z,12.13
2023-03-03T05:43:26.476Z,13.83
2023-03-03T05:45:56.671Z,12.77
2023-03-03T05:48:22.983Z,12.63
2023-03-03T05:50:49.240Z,12.70
2023-03-03T05:53:15.475Z,12.83
2023-03-03T05:55:41.716Z,13.07
2023-03-03T05:58:07.953Z,12.93
2023-03-03T06:00:34.164Z,12.57
2023-03-03T06:03:00.519Z,13.40
2023-03-03T06:05:27.062Z,12.33
2023-03-03T06:07:53.406Z,13.43
2023-03-03T06:10:19.737Z,13.17
2023-03-03T06:12:46.027Z,12.80
2023-03-03T06:15:12.327Z,12.70
2023-03-03T06:17:38.754Z,12.13
2023-03-03T06:20:05.596Z,11.90
2023-03-03T06:22:31.818Z,11.93
2023-03-03T06:24:58.056Z,12.30
2023-03-03T06:27:24.286Z,11.70
2023-03-03T06:29:50.550Z,11.07
2023-03-03T06:32:17.009Z,11.00
2023-03-03T06:34:43.294Z,11.37
2023-03-03T06:37:09.535Z,11.30
2023-03-03T06:39:35.842Z,11.20
2023-03-03T06:42:02.070Z,11.87
2023-03-03T06:44:28.932Z,12.63
2023-03-03T06:46:57.262Z,11.37
2023-03-03T06:49:23.515Z,12.63
2023-03-03T06:51:50.558Z,13.13
2023-03-03T06:54:17.887Z,13.47
2023-03-03T06:56:45.064Z,14.13
2023-03-03T06:59:12.835Z,13.17
2023-03-03T07:01:39.604Z,13.80
2023-03-03T07:04:13.759Z,14.50
2023-03-03T07:06:39.970Z,14.30
2023-03-03T07:09:14.736Z,14.23
2023-03-03T07:11:41.123Z,14.90
2023-03-03T07:14:14.659Z,13.70
2023-03-03T07:16:40.955Z,13.97
2023-03-03T07:19:14.619Z,14.20
2023-03-03T07:21:41.328Z,13.90
2023-03-03T07:24:34.154Z,13.33
2023-03-03T07:27:00.703Z,14.33
2023-03-03T07:29:28.155Z,13.27
2023-03-03T07:31:59.248Z,13.27
2023-03-03T07:34:31.036Z,12.73
2023-03-03T07:37:04.670Z,12.50
2023-03-03T07:39:40.517Z,13.00
2023-03-03T07:42:14.832Z,11.20
2023-03-03T07:44:41.281Z,11.10
2023-03-03T07:47:14.287Z,10.30
2023-03-03T07:49:40.737Z,11.27
2023-03-03T07:52:23.372Z,11.10
2023-03-03T07:54:49.607Z,9.83
2023-03-03T07:57:21.768Z,10.23
2023-03-03T07:59:49.857Z,10.10
2023-03-03T08:02:30.913Z,11.17
2023-03-03T08:04:57.202Z,9.23
2023-03-03T08:07:23.710Z,10.20
2023-03-03T08:09:52.024Z,10.37
2023-03-03T08:12:24.148Z,10.63
2023-03-03T08:14:51.579Z,9.70
2023-03-03T08:17:20.874Z,10.17
2023-03-03T08:19:48.057Z,10.17
2023-03-03T08:22:40.455Z,11.00
2023-03-03T08:25:06.846Z,9.93
2023-03-03T08:27:33.316Z,10.13
2023-03-03T08:29:59.574Z,10.07
2023-03-03T08:32:25.871Z,9.90
2023-03-03T08:34:52.360Z,8.77
2023-03-03T08:37:18.719Z,9.03
2023-03-03T08:39:45.391Z,8.77
2023-03-03T08:42:11.670Z,7.70
2023-03-03T08:44:37.933Z,7.57
2023-03-03T08:47:04.244Z,8.00
2023-03-03T08:49:30.520Z,8.10
2023-03-03T08:51:57.064Z,7.97
2023-03-03T08:54:23.295Z,7.37
2023-03-03T08:56:50.037Z,7.23
2023-03-03T08:59:16.277Z,7.10
2023-03-03T09:01:44.642Z,7.10
2023-03-03T09:04:12.674Z,7.43
2023-03-03T09:06:39.255Z,7.33
2023-03-03T09:09:05.590Z,7.87
2023-03-03T09:11:32.570Z,7.63
2023-03-03T09:14:11.493Z,7.93
2023-03-03T09:16:39.195Z,7.40
2023-03-03T09:19:24.380Z,7.87
2023-03-03T09:21:51.632Z,7.30
2023-03-03T09:24:28.355Z,7.07
2023-03-03T09:26:55.054Z,7.57
2023-03-03T09:29:27.462Z,7.30
2023-03-03T09:31:55.530Z,7.03
2023-03-03T09:34:41.280Z,7.60
2023-03-03T09:37:26.550Z,7.60
2023-03-03T09:39:54.262Z,7.43
2023-03-03T09:42:38.919Z,8.07
2023-03-03T09:45:08.027Z,8.57
2023-03-03T09:47:47.565Z,8.63
2023-03-03T09:50:33.013Z,8.37
2023-03-03T09:52:59.231Z,8.07
2023-03-03T09:55:25.611Z,7.40
2023-03-03T09:58:04.554Z,7.73
2023-03-03T10:00:40.754Z,7.83
2023-03-03T10:03:19.368Z,7.37
2023-03-03T10:05:56.819Z,7.83
2023-03-03T10:08:36.106Z,7.87
2023-03-03T10:11:08.408Z,8.30
2023-03-03T10:13:41.068Z,8.10
2023-03-03T10:16:22.408Z,7.83
2023-03-03T10:18:56.330Z,8.80
2023-03-03T10:21:25.686Z,7.70
2023-03-03T10:23:56.875Z,7.57
2023-03-03T10:26:45.253Z,7.90
2023-03-03T10:29:29.205Z,7.30
2023-03-03T10:32:16.269Z,7.63
2023-03-03T10:35:15.343Z,8.17
2023-03-03T10:37:48.723Z,7.80
2023-03-03T10:40:33.559Z,8.53
2023-03-03T10:43:31.729Z,8.77
2023-03-03T10:46:01.832Z,9.00
2023-03-03T10:48:39.881Z,8.50
2023-03-03T10:51:14.742Z,8.20
2023-03-03T10:54:10.105Z,8.90
2023-03-03T10:56:52.127Z,8.87
2023-03-03T10:59:38.378Z,9.70
2023-03-03T11:02:13.364Z,9.90
2023-03-03T11:04:39.663Z,9.23
2023-03-03T11:07:13.369Z,10.43
2023-03-03T11:09:46.602Z,11.00
2023-03-03T11:12:25.601Z,11.57
2023-03-03T11:15:02.250Z,12.47
2023-03-03T11:17:47.474Z,12.40
2023-03-03T11:20:27.569Z,11.87
2023-03-03T11:23:00.122Z,10.80
2023-03-03T11:25:33.321Z,11.40
2023-03-03T11:28:10.430Z,11.17
2023-03-03T11:30:36.791Z,11.90
2023-03-03T11:33:15.323Z,12.07
2023-03-03T11:35:51.336Z,12.03
2023-03-03T11:38:32.951Z,10.83
2023-03-03T11:41:01.539Z,11.20
2023-03-03T11:43:37.767Z,10.97
2023-03-03T11:46:13.044Z,11.50
2023-03-03T11:48:46.082Z,10.70
2023-03-03T11:51:19.685Z,12.07
2023-03-03T11:54:00.389Z,11.87
2023-03-03T11:56:45.830Z,11.90
2023-03-03T11:59:21.351Z,11.47
2023-03-03T12:01:57.903Z,12.27
2023-03-03T12:04:30.861Z,11.90
2023-03-03T12:07:19.944Z,11.73
2023-03-03T12:09:52.135Z,11.87
2023-03-03T12:12:34.790Z,12.50
2023-03-03T12:15:19.125Z,12.33
2023-03-03T12:17:52.640Z,11.33
2023-03-03T12:20:25.672Z,12.97
2023-03-03T12:23:12.043Z,12.43
2023-03-03T12:25:46.221Z,12.80
2023-03-03T12:28:23.971Z,12.90
2023-03-03T12:31:08.630Z,11.33
2023-03-03T12:33:54.053Z,11.97
2023-03-03T12:36:39.343Z,12.17
2023-03-03T12:39:12.011Z,12.20
2023-03-03T12:41:47.829Z,12.33
2023-03-03T12:44:14.143Z,12.77
2023-03-03T12:46:44.465Z,12.33
2023-03-03T12:49:11.118Z,13.10
2023-03-03T12:51:43.565Z,13.13
2023-03-03T12:54:25.198Z,12.83
2023-03-03T12:57:04.521Z,13.50
2023-03-03T12:59:36.769Z,12.60
2023-03-03T13:02:22.264Z,13.60
2023-03-03T13:04:55.434Z,11.67
2023-03-03T13:07:41.905Z,11.63
2023-03-03T13:10:13.657Z,12.67
2023-03-03T13:12:45.473Z,13.40
2023-03-03T13:15:12.635Z,12.60
2023-03-03T13:17:52.327Z,12.73
2023-03-03T13:20:25.129Z,13.33
2023-03-03T13:22:57.512Z,13.20
2023-03-03T13:25:23.944Z,12.70
2023-03-03T13:27:53.406Z,13.27
2023-03-03T13:30:19.742Z,12.53
2023-03-03T13:32:59.576Z,13.23
2023-03-03T13:35:35.800Z,15.60
2023-03-03T13:38:02.691Z,13.60
2023-03-03T13:40:38.518Z,13.87
2023-03-03T13:43:09.921Z,14.57
2023-03-03T13:45:57.631Z,13.13
2023-03-03T13:48:29.947Z,12.70
2023-03-03T13:50:58.026Z,13.57
2023-03-03T13:53:31.478Z,14.20
2023-03-03T13:56:10.107Z,13.43
2023-03-03T13:58:46.821Z,12.70
2023-03-03T14:01:19.206Z,13.03
2023-03-03T14:03:48.387Z,12.87
2023-03-03T14:06:14.708Z,13.87
2023-03-03T14:08:46.704Z,12.20
2023-03-03T14:11:19.298Z,11.93
2023-03-03T14:13:52.599Z,12.00
2023-03-03T14:16:30.712Z,12.40
2023-03-03T14:18:58.039Z,11.57
2023-03-03T14:21:29.538Z,9.93
2023-03-03T14:23:59.169Z,11.13
2023-03-03T14:26:25.763Z,10.87
2023-03-03T14:29:03.323Z,11.73
2023-03-03T14:31:32.170Z,11.43
2023-03-03T14:34:14.217Z,11.60
2023-03-03T14:36:41.785Z,11.10
2023-03-03T14:39:26.745Z,12.07
2023-03-03T14:41:53.643Z,12.13
2023-03-03T14:44:30.345Z,11.73
2023-03-03T14:47:15.324Z,11.47
2023-03-03T14:49:41.793Z,12.27
2023-03-03T14:52:14.241Z,12.17
2023-03-03T14:54:48.448Z,11.43
2023-03-03T14:57:31.201Z,11.40
2023-03-03T14:59:59.140Z,11.83
2023-03-03T15:02:30.247Z,11.33
2023-03-03T15:05:13.140Z,12.00
2023-03-03T15:07:42.953Z,11.03
2023-03-03T15:10:09.884Z,11.90
2023-03-03T15:12:37.207Z,11.77
2023-03-03T15:15:07.004Z,11.27
2023-03-03T15:17:35.637Z,12.30
2023-03-03T15:20:07.983Z,11.83
2023-03-03T15:22:41.946Z,11.27
2023-03-03T15:25:20.951Z,11.43
2023-03-03T15:28:06.196Z,12.00
2023-03-03T15:30:44.571Z,11.87
2023-03-03T15:33:18.402Z,12.70
2023-03-03T15:35:52.625Z,12.37
2023-03-03T15:38:39.380Z,13.10
2023-03-03T15:41:24.428Z,13.10
2023-03-03T15:43:59.324Z,12.70
2023-03-03T15:46:33.925Z,12.37
2023-03-03T15:49:13.239Z,12.53
2023-03-03T15:52:03.564Z,11.87
2023-03-03T15:54:40.003Z,12.33
2023-03-03T15:57:16.429Z,11.37
2023-03-03T15:59:45.020Z,13.17
2023-03-03T16:02:22.040Z,12.63
2023-03-03T16:05:08.526Z,11.93
2023-03-03T16:07:45.239Z,12.23
2023-03-03T16:10:18.661Z,12.53
2023-03-03T16:12:53.816Z,12.87
2023-03-03T16:15:37.292Z,12.30
2023-03-03T16:18:07.217Z,12.63
2023-03-03T16:20:37.828Z,13.17
2023-03-03T16:23:16.344Z,12.47
2023-03-03T16:25:58.218Z,12.53
2023-03-03T16:28:35.460Z,12.60
2023-03-03T16:31:01.661Z,12.57
2023-03-03T16:33:57.069Z,13.10
2023-03-03T16:36:29.437Z,12.30
2023-03-03T16:39:03.224Z,13.53
2023-03-03T16:41:39.689Z,12.03
2023-03-03T16:44:28.058Z,12.30
2023-03-03T16:46:59.176Z,12.30
2023-03-03T16:49:30.935Z,13.03
2023-03-03T16:52:07.556Z,13.13
2023-03-03T16:54:37.139Z,12.73
2023-03-03T16:57:27.732Z,12.57
2023-03-03T17:00:12.005Z,13.47
2023-03-03T17:02:38.226Z,12.63
2023-03-03T17:05:04.975Z,13.33
2023-03-03T17:07:39.239Z,12.57
2023-03-03T17:10:11.840Z,12.93
2023-03-03T17:12:56.636Z,13.30
2023-03-03T17:15:41.738Z,13.50
2023-03-03T17:18:13.248Z,13.20
2023-03-03T17:20:46.045Z,14.03
2023-03-03T17:23:34.911Z,13.57
2023-03-03T17:26:11.382Z,13.70
2023-03-03T17:28:56.529Z,13.97
2023-03-03T17:31:47.441Z,13.63
2023-03-03T17:34:19.052Z,13.63
2023-03-03T17:36:52.629Z,13.90
2023-03-03T17:39:37.623Z,13.63
2023-03-03T17:42:09.941Z,13.77
2023-03-03T17:44:50.315Z,12.17
2023-03-03T17:47:23.981Z,13.87
2023-03-03T17:50:02.229Z,12.90
2023-03-03T17:52:47.068Z,12.77
2023-03-03T17:55:16.404Z,12.17
2023-03-03T17:57:52.895Z,12.80
2023-03-03T18:00:25.250Z,14.30
2023-03-03T18:03:10.280Z,13.20
2023-03-03T18:06:11.995Z,12.93
2023-03-03T18:08:46.650Z,13.30
2023-03-03T18:11:32.930Z,12.73
2023-03-03T18:14:07.020Z,12.43
2023-03-03T18:16:55.644Z,13.77
2023-03-03T18:19:38.941Z,12.97
2023-03-03T18:22:05.157Z,13.73
2023-03-03T18:24:38.572Z,13.10
2023-03-03T18:27:34.053Z,13.87
2023-03-03T18:30:09.395Z,13.00
2023-03-03T18:33:01.825Z,12.80
2023-03-03T18:35:33.392Z,13.37
2023-03-03T18:38:20.748Z,13.13
2023-03-03T18:40:51.668Z,13.53
2023-03-03T18:43:36.749Z,13.43
2023-03-03T18:46:03.104Z,12.50
2023-03-03T18:48:45.584Z,13.80
2023-03-03T18:51:11.840Z,13.30
2023-03-03T18:53:45.237Z,12.77
2023-03-03T18:56:11.536Z,12.67
2023-03-03T18:58:40.707Z,13.60
2023-03-03T19:01:33.463Z,13.97
2023-03-03T19:04:18.577Z,14.60
2023-03-03T19:06:47.923Z,14.20
2023-03-03T19:09:34.513Z,13.37
2023-03-03T19:12:00.753Z,13.43
2023-03-03T19:14:28.877Z,13.90
2023-03-03T19:16:55.992Z,14.00
2023-03-03T19:19:24.314Z,14.67
2023-03-03T19:21:52.256Z,13.57
2023-03-03T19:24:26.703Z,13.03
2023-03-03T19:27:05.363Z,14.20
2023-03-03T19:29:46.562Z,12.90
2023-03-03T19:32:15.800Z,14.03
2023-03-03T19:34:47.120Z,13.40
2023-03-03T19:37:28.429Z,14.00
2023-03-03T19:39:57.797Z,14.37
2023-03-03T19:42:48.416Z,14.20
2023-03-03T19:45:33.240Z,13.87
2023-03-03T19:48:14.741Z,15.00
2023-03-03T19:50:59.771Z,13.97
2023-03-03T19:53:35.237Z,14.00
2023-03-03T19:56:14.223Z,13.77
2023-03-03T19:58:49.483Z,13.27
2023-03-03T20:01:33.265Z,13.53
2023-03-03T20:03:59.713Z,14.33
2023-03-03T20:06:43.710Z,13.67
2023-03-03T20:09:18.276Z,13.73
2023-03-03T20:11:53.614Z,12.57
2023-03-03T20:14:38.663Z,12.73
2023-03-03T20:17:11.113Z,13.27
2023-03-03T20:19:46.837Z,14.23
2023-03-03T20:22:15.809Z,12.93
2023-03-03T20:24:46.078Z,13.87
2023-03-03T20:27:18.153Z,13.47
2023-03-03T20:29:57.858Z,13.07
2023-03-03T20:32:40.467Z,14.47
2023-03-03T20:35:27.287Z,12.77
2023-03-03T20:38:23.234Z,14.03
2023-03-03T20:40:54.867Z,12.73
2023-03-03T20:43:24.164Z,13.03
2023-03-03T20:45:57.099Z,14.03
2023-03-03T20:48:32.682Z,12.73
2023-03-03T20:51:16.560Z,12.50
2023-03-03T20:53:51.240Z,12.43
2023-03-03T20:56:36.321Z,12.27
2023-03-03T20:59:21.353Z,12.30
2023-03-03T21:01:53.238Z,12.73
2023-03-03T21:04:24.502Z,12.13
2023-03-03T21:06:50.847Z,12.60
2023-03-03T21:09:30.723Z,12.30
2023-03-03T21:11:57.769Z,12.13
2023-03-03T21:14:25.549Z,12.83
2023-03-03T21:16:58.917Z,12.50
2023-03-03T21:19:26.991Z,12.20
2023-03-03T21:21:53.970Z,12.27
2023-03-03T21:24:20.606Z,12.33
2023-03-03T21:26:48.653Z,11.43
2023-03-03T21:29:24.170Z,11.40
2023-03-03T21:31:54.949Z,11.37
2023-03-03T21:34:25.849Z,12.83
2023-03-03T21:36:52.509Z,12.17
2023-03-03T21:39:19.545Z,11.80
2023-03-03T21:41:53.078Z,11.57
2023-03-03T21:44:29.994Z,12.30
2023-03-03T21:46:58.572Z,11.80
2023-03-03T21:49:25.119Z,11.50
2023-03-03T21:51:51.390Z,11.27
2023-03-03T21:54:17.613Z,12.13
2023-03-03T21:56:43.884Z,12.23
2023-03-03T21:59:10.350Z,11.37
2023-03-03T22:01:38.272Z,11.27
2023-03-03T22:04:05.717Z,12.17
2023-03-03T22:06:32.028Z,12.57
2023-03-03T22:08:58.489Z,11.20
2023-03-03T22:11:24.733Z,11.90
2023-03-03T22:13:50.970Z,12.73
2023-03-03T22:16:17.360Z,13.97
2023-03-03T22:18:43.618Z,13.60
2023-03-03T22:21:09.906Z,14.27
2023-03-03T22:23:36.184Z,14.13
2023-03-03T22:26:02.485Z,14.93
2023-03-03T22:28:31.747Z,14.40
2023-03-03T22:30:58.084Z,15.17
2023-03-03T22:33:24.405Z,15.30
2023-03-03T22:35:50.736Z,16.70
2023-03-03T22:38:17.076Z,16.83
2023-03-03T22:40:43.552Z,18.37
2023-03-03T22:43:14.495Z,17.17
2023-03-03T22:45:40.810Z,18.60
2023-03-03T22:48:07.378Z,18.13
2023-03-03T22:50:39.302Z,18.67
2023-03-03T22:53:06.267Z,19.37
2023-03-03T22:55:36.768Z,17.60
2023-03-03T22:58:09.238Z,19.27
2023-03-03T23:00:38.060Z,19.37
2023-03-03T23:03:05.450Z,19.63
2023-03-03T23:05:32.034Z,18.87
2023-03-03T23:07:58.269Z,20.10
2023-03-03T23:10:24.891Z,20.80
2023-03-03T23:12:51.127Z,21.00
2023-03-03T23:15:17.871Z,18.90
2023-03-03T23:17:44.656Z,19.03
2023-03-03T23:20:12.408Z,18.83
2023-03-03T23:22:38.797Z,19.87
2023-03-03T23:25:05.350Z,18.87
2023-03-03T23:27:31.629Z,18.63
2023-03-03T23:29:57.852Z,19.00
2023-03-03T23:32:24.510Z,18.40
2023-03-03T23:34:51.434Z,18.80
2023-03-03T23:37:17.848Z,19.77
2023-03-03T23:39:44.094Z,19.83
2023-03-03T23:42:10.525Z,19.33
2023-03-03T23:44:37.735Z,19.63
2023-03-03T23:47:04.923Z,18.20
2023-03-03T23:49:31.248Z,19.10
2023-03-03T23:51:57.469Z,19.43
2023-03-03T23:54:23.693Z,19.00
2023-03-03T23:56:49.940Z,18.77
2023-03-03T23:59:16.182Z,18.73
